Delta Virtual Airport Information Service

London Heathrow Airport

ICAO: EGLL Country: United Kingdom
Latitude: 51.4775 Longitude: -0.46138
Latest Arrival : DAC11 (ENVA-EGLL) Latest Departure : DAL33 (EGLL-KATL)


WX CaptureLIVE
Data provided by noaa.gov | Fetched at 04:09:25

METAR : EGLL 030950Z 24006KT 9999 -RA BKN005 OVC016 07/06 Q1004

TAF : EGLL 030824Z 0308/0412 22006KT 9999 BKN006 TEMPO 0308/0312 2500 RADZ BKN004 PROB30 TEMPO 0309/0312 1400 BR DZ BKN001 BECMG 0312/0315 FEW030 TEMPO 0315/0403 5000 BR PROB30 TEMPO 0318/0403 2000 DZ BKN004 PROB30 TEMPO 0405/0408 8000 SHRA BKN008 PROB30 TEMPO 0410/0412 28015G25KT


Runway Data for EGLL
Data provided by openaviationdata.com

Runway ID Mag Var Hdg Length Elevation Surface ILS Freq ILS Id ILS Slope
09L -1 90° 13160 ft 83 ft Asphalt 110.3 IAA 3
09R -1 91° 12396 ft 83 ft Asphalt 109.5 IBB 3
27L -1 271° 12396 ft 83 ft Asphalt 109.5 ILL 3
27R -1 270° 13160 ft 83 ft Asphalt 110.3 IRR 3

London Heathrow Airport, United Kingdom
Use only for reference purposes



Not for navigational purposes.